Time;durP1;ratioP1;P1;durP2;ratioP2;P2;SDS_P1;SDS_P2;PMS_P1;PMS_P2;Temp;Humidity;BMP_temperature;BMP_pressure;BME280_temperature;BME280_humidity;BME280_pressure;Samples;Min_cycle;Max_cycle;Signal;HPM_P1;HPM_P2
2023/01/22 00:01:08;;;;;;;36.50;19.92;;;;;;;;;;1924376;74;21105;-58
2023/01/22 00:03:37;;;;;;;37.33;19.37;;;;;;;;;;1924353;74;21079;-58
2023/01/22 00:06:05;;;;;;;41.95;19.67;;;;;;;;;;1924333;74;21109;-58
2023/01/22 00:08:34;;;;;;;39.23;18.48;;;;;;;;;;1924378;74;21117;-58
2023/01/22 00:11:03;;;;;;;38.15;19.50;;;;;;;;;;1924460;74;21041;-58
2023/01/22 00:13:32;;;;;;;31.73;20.95;;;;;;;;;;1924383;74;21118;-58
2023/01/22 00:16:00;;;;;;;41.05;19.95;;;;;;;;;;1924364;74;21040;-58
2023/01/22 00:18:29;;;;;;;35.23;18.82;;;;;;;;;;1924390;74;21097;-58
2023/01/22 00:20:58;;;;;;;32.83;19.35;;;;;;;;;;1924327;74;21035;-58
2023/01/22 00:23:26;;;;;;;39.88;20.35;;;;;;;;;;1924331;74;21019;-58
2023/01/22 00:26:02;;;;;;;41.45;18.95;;;;;;;;;;1924455;74;21043;-58
2023/01/22 00:28:31;;;;;;;39.13;20.20;;;;;;;;;;1923749;74;21019;-58
2023/01/22 00:31:00;;;;;;;37.75;18.48;;;;;;;;;;1924319;74;21034;-58
2023/01/22 00:33:29;;;;;;;38.73;21.60;;;;;;;;;;1924359;74;21085;-58
2023/01/22 00:35:58;;;;;;;38.95;19.62;;;;;;;;;;1924360;74;20999;-58
2023/01/22 00:38:27;;;;;;;39.18;19.27;;;;;;;;;;1923920;74;21024;-58
2023/01/22 00:40:56;;;;;;;36.68;20.25;;;;;;;;;;1924467;74;21135;-58
2023/01/22 00:43:24;;;;;;;36.73;20.27;;;;;;;;;;1924468;74;21044;-58
2023/01/22 00:45:53;;;;;;;33.10;18.75;;;;;;;;;;1924306;74;21039;-58
2023/01/22 00:48:21;;;;;;;39.50;19.67;;;;;;;;;;1924488;74;21050;-58
2023/01/22 00:50:50;;;;;;;41.63;19.25;;;;;;;;;;1924323;74;21035;-58
2023/01/22 00:53:18;;;;;;;32.03;18.60;;;;;;;;;;1924688;74;21000;-58
2023/01/22 00:55:57;;;;;;;30.25;18.62;;;;;;;;;;1924546;74;21039;-58
2023/01/22 00:58:26;;;;;;;37.00;18.87;;;;;;;;;;1923329;74;21104;-58
2023/01/22 01:00:54;;;;;;;37.30;19.92;;;;;;;;;;1897926;75;21161;-58
2023/01/22 01:03:26;;;;;;;33.53;18.15;;;;;;;;;;1897957;75;21024;-58
2023/01/22 01:05:55;;;;;;;35.25;19.85;;;;;;;;;;1897933;75;21036;-58
2023/01/22 01:08:23;;;;;;;39.55;21.40;;;;;;;;;;1897975;75;21025;-58
2023/01/22 01:10:56;;;;;;;38.15;21.65;;;;;;;;;;1898079;75;21024;-58
2023/01/22 01:13:24;;;;;;;33.60;19.15;;;;;;;;;;1898051;75;21153;-58
2023/01/22 01:16:03;;;;;;;36.73;18.25;;;;;;;;;;1897974;75;21320;-58
2023/01/22 01:18:32;;;;;;;34.73;18.95;;;;;;;;;;1898143;75;21107;-58
2023/01/22 01:21:03;;;;;;;33.60;18.42;;;;;;;;;;1897927;75;21102;-58
2023/01/22 01:23:31;;;;;;;38.70;19.10;;;;;;;;;;1897921;75;21106;-58
2023/01/22 01:26:02;;;;;;;36.55;18.70;;;;;;;;;;1897973;75;21020;-58
2023/01/22 01:28:31;;;;;;;36.95;18.82;;;;;;;;;;1897921;75;21051;-58
2023/01/22 01:31:02;;;;;;;31.65;18.67;;;;;;;;;;1897868;75;21041;-58
2023/01/22 01:33:30;;;;;;;34.58;19.00;;;;;;;;;;1897863;75;21089;-58
2023/01/22 01:36:04;;;;;;;31.25;17.52;;;;;;;;;;1897960;75;21001;-58
2023/01/22 01:38:32;;;;;;;35.83;18.20;;;;;;;;;;1897958;75;21082;-58
2023/01/22 01:41:00;;;;;;;36.98;18.27;;;;;;;;;;1897816;75;21025;-58
2023/01/22 01:43:29;;;;;;;41.73;17.60;;;;;;;;;;1897957;75;21209;-58
2023/01/22 01:45:59;;;;;;;43.02;19.00;;;;;;;;;;1897994;75;21132;-58
2023/01/22 01:48:42;;;;;;;34.98;18.32;;;;;;;;;;1897938;75;21040;-58
2023/01/22 01:51:14;;;;;;;31.50;17.02;;;;;;;;;;1897058;75;21000;-58
2023/01/22 01:53:44;;;;;;;40.65;18.20;;;;;;;;;;1897848;75;21110;-58
2023/01/22 01:56:25;;;;;;;38.67;17.27;;;;;;;;;;1897918;75;21028;-58
2023/01/22 01:58:55;;;;;;;34.30;18.90;;;;;;;;;;1897750;74;21092;-58
2023/01/22 02:01:24;;;;;;;31.02;16.42;;;;;;;;;;1897839;75;21084;-58
2023/01/22 02:03:53;;;;;;;35.68;16.90;;;;;;;;;;1897791;75;21048;-58
2023/01/22 02:06:21;;;;;;;35.45;17.17;;;;;;;;;;1897811;75;21173;-58
2023/01/22 02:08:50;;;;;;;37.08;17.67;;;;;;;;;;1897923;75;21000;-58
2023/01/22 02:11:19;;;;;;;37.05;17.95;;;;;;;;;;1897932;75;21005;-58
2023/01/22 02:13:49;;;;;;;38.90;18.77;;;;;;;;;;1897974;75;21024;-58
2023/01/22 02:16:18;;;;;;;34.88;17.75;;;;;;;;;;1897805;75;21126;-59
2023/01/22 02:18:48;;;;;;;33.80;18.48;;;;;;;;;;1897714;75;21024;-58
2023/01/22 02:21:37;;;;;;;26.87;15.70;;;;;;;;;;1897379;75;21043;-58
2023/01/22 02:24:07;;;;;;;27.22;15.80;;;;;;;;;;1897808;75;21060;-58
2023/01/22 02:26:36;;;;;;;33.08;17.85;;;;;;;;;;1897899;75;21036;-58
2023/01/22 02:29:06;;;;;;;34.43;16.12;;;;;;;;;;1897816;75;21076;-58
2023/01/22 02:31:37;;;;;;;33.15;16.77;;;;;;;;;;1897934;75;21028;-58
2023/01/22 02:34:06;;;;;;;33.88;16.32;;;;;;;;;;1897987;75;21016;-58
2023/01/22 02:36:36;;;;;;;30.17;16.67;;;;;;;;;;1897786;75;21109;-58
2023/01/22 02:39:05;;;;;;;29.15;16.57;;;;;;;;;;1897977;75;21024;-58
2023/01/22 02:41:34;;;;;;;33.53;18.80;;;;;;;;;;1897876;75;21059;-58
2023/01/22 02:44:06;;;;;;;30.97;16.55;;;;;;;;;;1897888;75;21110;-58
2023/01/22 02:46:34;;;;;;;37.23;17.62;;;;;;;;;;1897941;75;21059;-58
2023/01/22 02:49:03;;;;;;;32.40;17.32;;;;;;;;;;1897826;75;21232;-58
2023/01/22 02:51:33;;;;;;;36.77;17.32;;;;;;;;;;1897833;75;21098;-58
2023/01/22 02:54:01;;;;;;;38.80;19.07;;;;;;;;;;1897780;75;21036;-58
2023/01/22 02:56:30;;;;;;;42.98;20.35;;;;;;;;;;1897883;75;21021;-58
2023/01/22 02:59:00;;;;;;;41.40;19.10;;;;;;;;;;1897885;75;21154;-58
2023/01/22 03:01:29;;;;;;;42.65;18.00;;;;;;;;;;1927767;74;21067;-58
2023/01/22 03:04:09;;;;;;;36.00;18.40;;;;;;;;;;1932454;74;21031;-58
2023/01/22 03:06:29;;;;;;;40.23;18.70;;;;;;;;;;1929821;74;21101;-58
2023/01/22 03:09:00;;;;;;;37.33;16.87;;;;;;;;;;1932284;74;21042;-58
2023/01/22 03:11:30;;;;;;;32.30;17.50;;;;;;;;;;1932548;74;21094;-58
2023/01/22 03:22:19;;;;;;;46.37;18.57;;;;;;;;;;1932630;74;21035;-57
2023/01/22 03:24:54;;;;;;;34.85;18.15;;;;;;;;;;1932473;74;21105;-57
2023/01/22 03:27:20;;;;;;;35.73;17.27;;;;;;;;;;1931007;74;21094;-57
2023/01/22 03:29:48;;;;;;;32.35;16.93;;;;;;;;;;1932505;74;21175;-57
2023/01/22 03:32:18;;;;;;;34.33;16.95;;;;;;;;;;1932511;74;21043;-58
2023/01/22 03:34:46;;;;;;;31.33;16.05;;;;;;;;;;1932650;74;21007;-58
2023/01/22 03:37:15;;;;;;;37.38;17.20;;;;;;;;;;1932594;74;21023;-57
2023/01/22 03:39:45;;;;;;;34.85;17.85;;;;;;;;;;1932488;74;21050;-57
2023/01/22 03:42:15;;;;;;;33.65;16.80;;;;;;;;;;1931151;74;21023;-57
2023/01/22 03:44:44;;;;;;;30.15;15.08;;;;;;;;;;1932539;74;21062;-57
2023/01/22 03:47:13;;;;;;;39.08;16.50;;;;;;;;;;1932580;74;21027;-57
2023/01/22 03:49:42;;;;;;;31.45;18.12;;;;;;;;;;1932518;74;21097;-58
2023/01/22 03:52:11;;;;;;;51.85;19.48;;;;;;;;;;1932486;74;21572;-57
2023/01/22 03:54:40;;;;;;;31.87;16.57;;;;;;;;;;1932450;74;21043;-58
2023/01/22 03:57:09;;;;;;;33.58;15.20;;;;;;;;;;1932521;74;21117;-57
2023/01/22 03:59:40;;;;;;;45.25;19.45;;;;;;;;;;1932525;74;21105;-58
2023/01/22 04:02:08;;;;;;;34.40;17.92;;;;;;;;;;1932469;74;21055;-57
2023/01/22 04:04:38;;;;;;;44.48;17.82;;;;;;;;;;1931906;74;21104;-57
2023/01/22 04:07:07;;;;;;;43.92;18.55;;;;;;;;;;1932386;74;21031;-57
2023/01/22 04:09:35;;;;;;;38.78;16.82;;;;;;;;;;1932528;74;21015;-57
2023/01/22 04:12:04;;;;;;;32.48;16.62;;;;;;;;;;1932570;74;21104;-57
2023/01/22 04:14:33;;;;;;;31.70;17.92;;;;;;;;;;1932410;74;21097;-57
2023/01/22 04:17:03;;;;;;;28.95;17.60;;;;;;;;;;1932452;74;21133;-57
2023/01/22 04:19:41;;;;;;;41.73;18.35;;;;;;;;;;1920510;74;21026;-57
2023/01/22 04:22:11;;;;;;;39.25;19.10;;;;;;;;;;1928579;74;21011;-58
2023/01/22 04:24:40;;;;;;;37.17;17.32;;;;;;;;;;1932628;74;21113;-58
2023/01/22 04:27:09;;;;;;;43.80;17.82;;;;;;;;;;1932696;74;21089;-58
2023/01/22 04:29:38;;;;;;;38.63;18.27;;;;;;;;;;1932542;74;21049;-58
2023/01/22 04:32:08;;;;;;;35.85;17.37;;;;;;;;;;1932708;74;21024;-58
2023/01/22 04:34:57;;;;;;;32.38;16.87;;;;;;;;;;1930982;74;21050;-58
2023/01/22 04:37:27;;;;;;;38.48;16.57;;;;;;;;;;1929753;74;21108;-58
2023/01/22 04:39:55;;;;;;;43.05;18.42;;;;;;;;;;1932514;74;21081;-58
2023/01/22 04:42:25;;;;;;;45.10;17.80;;;;;;;;;;1932592;74;21035;-58
2023/01/22 04:44:54;;;;;;;38.25;18.95;;;;;;;;;;1932575;74;21003;-58
2023/01/22 04:47:23;;;;;;;28.15;16.30;;;;;;;;;;1932692;74;21035;-58
2023/01/22 04:49:51;;;;;;;34.05;17.85;;;;;;;;;;1932733;74;21031;-58
2023/01/22 04:52:20;;;;;;;37.65;17.27;;;;;;;;;;1932641;74;20991;-58
2023/01/22 04:54:50;;;;;;;35.65;20.85;;;;;;;;;;1932696;74;21089;-58
2023/01/22 04:57:19;;;;;;;33.08;17.25;;;;;;;;;;1932711;74;21039;-58
2023/01/22 04:59:48;;;;;;;34.70;16.77;;;;;;;;;;1932593;74;21047;-58
2023/01/22 05:02:17;;;;;;;38.83;16.57;;;;;;;;;;1926240;74;21059;-58
2023/01/22 05:04:46;;;;;;;34.58;17.35;;;;;;;;;;1924547;74;21136;-58
2023/01/22 05:07:14;;;;;;;34.70;16.27;;;;;;;;;;1924560;74;21020;-58
2023/01/22 05:09:43;;;;;;;30.12;16.37;;;;;;;;;;1924411;74;21547;-58
2023/01/22 05:12:12;;;;;;;32.10;16.35;;;;;;;;;;1924461;74;21039;-58
2023/01/22 05:14:42;;;;;;;33.95;16.42;;;;;;;;;;1924428;74;21064;-58
2023/01/22 05:17:10;;;;;;;33.80;16.93;;;;;;;;;;1924641;74;21007;-58
2023/01/22 05:19:39;;;;;;;34.60;16.42;;;;;;;;;;1924449;74;21106;-58
2023/01/22 05:22:10;;;;;;;40.33;19.10;;;;;;;;;;1923704;74;21056;-58
2023/01/22 05:24:38;;;;;;;51.02;17.75;;;;;;;;;;1924383;74;21019;-58
2023/01/22 05:27:07;;;;;;;39.88;16.73;;;;;;;;;;1924458;74;21078;-58
2023/01/22 05:29:37;;;;;;;34.05;16.67;;;;;;;;;;1923023;74;21083;-59
2023/01/22 05:32:14;;;;;;;37.90;17.77;;;;;;;;;;1913404;74;21067;-58
2023/01/22 05:34:44;;;;;;;34.30;16.32;;;;;;;;;;1923566;74;21059;-58
2023/01/22 05:37:13;;;;;;;35.50;16.12;;;;;;;;;;1924555;74;21089;-58
2023/01/22 05:39:42;;;;;;;33.33;17.37;;;;;;;;;;1924361;74;21047;-58
2023/01/22 05:42:19;;;;;;;28.27;16.95;;;;;;;;;;1924511;74;21004;-58
2023/01/22 05:44:46;;;;;;;38.95;17.55;;;;;;;;;;1924024;74;21568;-58
2023/01/22 05:47:15;;;;;;;40.28;19.82;;;;;;;;;;1924419;74;21019;-58
2023/01/22 05:49:51;;;;;;;35.75;16.95;;;;;;;;;;1896858;74;21109;-58
2023/01/22 05:52:21;;;;;;;37.67;17.90;;;;;;;;;;1924340;74;21165;-58
2023/01/22 05:54:50;;;;;;;39.25;17.98;;;;;;;;;;1924497;74;21093;-58
2023/01/22 05:57:18;;;;;;;37.63;17.50;;;;;;;;;;1924377;74;21164;-58
2023/01/22 05:59:47;;;;;;;39.85;19.73;;;;;;;;;;1924288;74;21101;-58
2023/01/22 06:02:16;;;;;;;50.83;20.05;;;;;;;;;;1909235;74;21087;-58
2023/01/22 06:04:44;;;;;;;38.48;19.30;;;;;;;;;;1897791;75;21094;-58
2023/01/22 06:07:20;;;;;;;36.85;18.60;;;;;;;;;;1896272;75;21031;-58
2023/01/22 06:09:49;;;;;;;36.25;19.25;;;;;;;;;;1897771;75;21036;-58
2023/01/22 06:12:18;;;;;;;45.17;20.55;;;;;;;;;;1897823;75;21082;-58
2023/01/22 06:14:47;;;;;;;36.15;20.85;;;;;;;;;;1897785;75;21235;-58
2023/01/22 06:17:16;;;;;;;30.82;18.02;;;;;;;;;;1897841;75;21032;-58
2023/01/22 06:19:49;;;;;;;47.75;23.67;;;;;;;;;;1891904;75;21106;-58
2023/01/22 06:22:19;;;;;;;43.00;23.90;;;;;;;;;;1897869;75;21008;-58
2023/01/22 06:24:55;;;;;;;40.17;18.95;;;;;;;;;;1897101;75;21455;-58
2023/01/22 06:27:25;;;;;;;44.23;22.07;;;;;;;;;;1897884;75;21105;-58
2023/01/22 06:29:58;;;;;;;38.58;21.27;;;;;;;;;;1897223;75;21110;-59
2023/01/22 06:32:27;;;;;;;42.60;20.97;;;;;;;;;;1897827;75;21020;-59
2023/01/22 06:34:55;;;;;;;34.20;18.90;;;;;;;;;;1897739;75;21099;-58
2023/01/22 06:37:24;;;;;;;33.35;16.73;;;;;;;;;;1897821;75;21102;-58
2023/01/22 06:39:53;;;;;;;42.70;19.87;;;;;;;;;;1897872;75;21094;-58
2023/01/22 06:42:26;;;;;;;45.55;20.20;;;;;;;;;;1897377;75;21055;-58
2023/01/22 06:44:54;;;;;;;38.88;20.48;;;;;;;;;;1897723;75;21048;-58
2023/01/22 06:47:24;;;;;;;40.20;21.20;;;;;;;;;;1897818;75;21110;-58
2023/01/22 06:49:53;;;;;;;47.23;20.23;;;;;;;;;;1897793;75;21161;-58
2023/01/22 06:52:22;;;;;;;38.33;21.65;;;;;;;;;;1897783;75;21074;-58
2023/01/22 06:54:50;;;;;;;24.15;14.75;;;;;;;;;;1897780;75;20997;-58
2023/01/22 06:57:19;;;;;;;37.93;20.48;;;;;;;;;;1897760;75;21082;-58
2023/01/22 06:59:47;;;;;;;44.93;20.62;;;;;;;;;;1897727;75;21036;-58
2023/01/22 07:02:17;;;;;;;41.13;20.40;;;;;;;;;;1897793;74;21083;-58
2023/01/22 07:04:45;;;;;;;44.50;24.37;;;;;;;;;;1897883;75;21091;-58
2023/01/22 07:07:13;;;;;;;39.73;21.27;;;;;;;;;;1897855;75;21133;-58
2023/01/22 07:09:42;;;;;;;43.80;22.22;;;;;;;;;;1897911;75;21019;-58
2023/01/22 07:12:10;;;;;;;43.63;21.15;;;;;;;;;;1897892;75;21044;-58
2023/01/22 07:14:39;;;;;;;39.63;21.95;;;;;;;;;;1897689;75;21021;-58
2023/01/22 07:17:08;;;;;;;47.67;22.58;;;;;;;;;;1897780;75;21040;-58
2023/01/22 07:19:36;;;;;;;43.17;22.45;;;;;;;;;;1897826;75;21075;-58
2023/01/22 07:22:05;;;;;;;42.65;23.25;;;;;;;;;;1897844;75;21024;-58
2023/01/22 07:24:33;;;;;;;46.85;25.80;;;;;;;;;;1897683;75;21106;-58
2023/01/22 07:27:02;;;;;;;65.78;30.75;;;;;;;;;;1897710;75;21044;-58
2023/01/22 07:29:30;;;;;;;50.50;23.30;;;;;;;;;;1897805;75;21024;-58
2023/01/22 07:31:59;;;;;;;35.75;20.75;;;;;;;;;;1897831;75;21044;-58
2023/01/22 07:34:27;;;;;;;42.15;24.75;;;;;;;;;;1897911;75;21040;-58
2023/01/22 07:36:56;;;;;;;49.38;26.48;;;;;;;;;;1897755;75;21084;-58
2023/01/22 07:39:25;;;;;;;50.33;26.82;;;;;;;;;;1897784;75;21106;-58
2023/01/22 07:41:53;;;;;;;62.27;29.42;;;;;;;;;;1897892;75;21024;-58
2023/01/22 07:44:22;;;;;;;46.15;26.30;;;;;;;;;;1897702;75;21059;-58
2023/01/22 07:46:50;;;;;;;49.18;26.55;;;;;;;;;;1897959;75;21036;-58
2023/01/22 07:49:19;;;;;;;53.25;27.25;;;;;;;;;;1897867;75;21017;-58
2023/01/22 07:51:47;;;;;;;60.55;27.90;;;;;;;;;;1897702;75;21036;-58
2023/01/22 07:54:16;;;;;;;44.73;25.62;;;;;;;;;;1897667;75;21048;-58
2023/01/22 07:56:44;;;;;;;51.98;27.80;;;;;;;;;;1897770;75;21016;-58
2023/01/22 07:59:13;;;;;;;54.83;26.75;;;;;;;;;;1897822;75;21037;-58
2023/01/22 08:01:42;;;;;;;65.62;27.27;;;;;;;;;;1897752;75;21098;-59
2023/01/22 08:04:10;;;;;;;45.12;25.75;;;;;;;;;;1929659;74;21055;-58
2023/01/22 08:06:39;;;;;;;43.95;25.60;;;;;;;;;;1932354;74;21043;-58
2023/01/22 08:09:07;;;;;;;50.58;28.47;;;;;;;;;;1932317;74;21055;-58
2023/01/22 08:11:35;;;;;;;49.50;29.95;;;;;;;;;;1932381;74;21027;-59
2023/01/22 08:14:04;;;;;;;50.58;28.02;;;;;;;;;;1932501;74;21035;-58
2023/01/22 08:16:32;;;;;;;45.70;28.05;;;;;;;;;;1932340;74;21116;-58
2023/01/22 08:19:01;;;;;;;52.33;30.48;;;;;;;;;;1932398;74;21113;-58
2023/01/22 08:21:29;;;;;;;49.45;28.07;;;;;;;;;;1932335;74;21085;-58
2023/01/22 08:23:58;;;;;;;53.68;28.55;;;;;;;;;;1932400;74;21015;-58
2023/01/22 08:26:26;;;;;;;51.15;29.07;;;;;;;;;;1932457;74;21086;-58
2023/01/22 08:28:55;;;;;;;58.15;29.42;;;;;;;;;;1932382;74;21106;-58
2023/01/22 08:31:24;;;;;;;53.92;28.57;;;;;;;;;;1932632;74;20987;-58
2023/01/22 08:33:52;;;;;;;53.00;25.77;;;;;;;;;;1932318;74;21039;-58
2023/01/22 08:36:21;;;;;;;48.25;27.07;;;;;;;;;;1932505;74;21011;-58
2023/01/22 08:38:49;;;;;;;51.68;26.82;;;;;;;;;;1932450;74;21032;-58
2023/01/22 08:41:17;;;;;;;45.50;24.90;;;;;;;;;;1932306;74;21513;-58
2023/01/22 08:43:46;;;;;;;42.60;24.07;;;;;;;;;;1932327;74;21050;-58
2023/01/22 08:46:15;;;;;;;48.73;25.45;;;;;;;;;;1932277;74;21105;-58
2023/01/22 08:48:43;;;;;;;45.43;28.12;;;;;;;;;;1932337;74;21035;-58
2023/01/22 08:51:12;;;;;;;47.40;27.02;;;;;;;;;;1932507;74;21015;-58
2023/01/22 08:53:40;;;;;;;45.85;23.87;;;;;;;;;;1932390;74;21020;-58
2023/01/22 08:56:10;;;;;;;56.83;30.27;;;;;;;;;;1932391;74;21108;-58
2023/01/22 08:58:38;;;;;;;60.23;28.77;;;;;;;;;;1932358;74;21019;-58
2023/01/22 09:01:07;;;;;;;45.78;24.63;;;;;;;;;;1932432;74;21110;-58
2023/01/22 09:03:35;;;;;;;46.80;25.72;;;;;;;;;;1932264;74;21047;-58
2023/01/22 09:06:03;;;;;;;42.35;25.52;;;;;;;;;;1932305;74;21101;-58
2023/01/22 09:08:32;;;;;;;45.17;26.37;;;;;;;;;;1932280;74;21043;-58
2023/01/22 09:11:00;;;;;;;46.30;27.62;;;;;;;;;;1932433;74;21039;-58
2023/01/22 09:13:29;;;;;;;45.92;28.42;;;;;;;;;;1932234;74;21039;-58
2023/01/22 09:15:58;;;;;;;51.80;28.15;;;;;;;;;;1932281;74;21019;-58
2023/01/22 09:18:26;;;;;;;46.85;27.52;;;;;;;;;;1932309;74;21074;-58
2023/01/22 09:20:56;;;;;;;41.83;24.35;;;;;;;;;;1932298;74;21023;-58
2023/01/22 09:23:25;;;;;;;51.28;29.37;;;;;;;;;;1932369;74;21050;-58
2023/01/22 09:25:53;;;;;;;35.63;21.02;;;;;;;;;;1932067;74;21320;-59
2023/01/22 09:28:22;;;;;;;43.48;23.85;;;;;;;;;;1932128;74;21097;-58
2023/01/22 09:30:51;;;;;;;44.63;25.97;;;;;;;;;;1932179;74;21195;-58
2023/01/22 09:33:19;;;;;;;44.00;25.68;;;;;;;;;;1932205;74;21144;-58
2023/01/22 09:35:47;;;;;;;41.68;23.12;;;;;;;;;;1932331;74;21104;-58
2023/01/22 09:38:17;;;;;;;29.92;16.07;;;;;;;;;;1932340;74;21091;-58
2023/01/22 09:40:50;;;;;;;58.10;28.85;;;;;;;;;;1932457;74;21091;-58
2023/01/22 09:43:28;;;;;;;46.92;27.90;;;;;;;;;;1932312;74;21023;-58
2023/01/22 09:45:58;;;;;;;44.38;23.85;;;;;;;;;;1932309;74;21039;-58
2023/01/22 09:48:28;;;;;;;46.20;22.95;;;;;;;;;;1932326;74;21494;-58
2023/01/22 09:50:56;;;;;;;46.98;23.47;;;;;;;;;;1932085;74;21090;-58
2023/01/22 09:53:25;;;;;;;43.58;24.15;;;;;;;;;;1932340;74;21090;-58
2023/01/22 09:55:54;;;;;;;47.15;25.57;;;;;;;;;;1932401;74;21105;-58
2023/01/22 09:58:24;;;;;;;48.60;23.15;;;;;;;;;;1932569;74;21558;-59
2023/01/22 10:00:57;;;;;;;48.48;24.72;;;;;;;;;;1932335;74;21035;-59
2023/01/22 10:03:30;;;;;;;47.98;25.68;;;;;;;;;;1931707;74;21145;-59
2023/01/22 10:06:00;;;;;;;56.85;25.75;;;;;;;;;;1932277;74;21133;-59
2023/01/22 10:08:30;;;;;;;45.78;25.05;;;;;;;;;;1931185;74;21125;-58
2023/01/22 10:11:02;;;;;;;38.98;22.95;;;;;;;;;;1932291;74;21531;-59
2023/01/22 10:13:32;;;;;;;43.78;25.20;;;;;;;;;;1932289;74;21089;-58
2023/01/22 10:16:01;;;;;;;57.43;24.77;;;;;;;;;;1931245;74;21461;-58
2023/01/22 10:18:31;;;;;;;47.30;24.87;;;;;;;;;;1932338;74;21113;-59
2023/01/22 10:21:01;;;;;;;42.88;24.30;;;;;;;;;;1932257;74;21043;-58
2023/01/22 10:23:30;;;;;;;38.38;21.55;;;;;;;;;;1932536;74;21035;-59
2023/01/22 10:26:00;;;;;;;54.00;27.85;;;;;;;;;;1932314;74;21097;-59
2023/01/22 10:28:28;;;;;;;51.45;25.25;;;;;;;;;;1931798;74;21027;-58
2023/01/22 10:30:57;;;;;;;37.95;20.35;;;;;;;;;;1932285;74;21094;-58
2023/01/22 10:33:27;;;;;;;48.35;27.70;;;;;;;;;;1932249;74;21148;-58
2023/01/22 10:35:56;;;;;;;50.12;24.75;;;;;;;;;;1932325;74;21101;-58
2023/01/22 10:38:26;;;;;;;42.27;20.00;;;;;;;;;;1932337;74;21113;-58
2023/01/22 10:40:58;;;;;;;41.13;22.37;;;;;;;;;;1931509;74;21457;-58
2023/01/22 10:43:31;;;;;;;52.83;23.95;;;;;;;;;;1931611;74;21116;-58
2023/01/22 10:46:04;;;;;;;33.83;18.62;;;;;;;;;;1931811;74;21016;-58
2023/01/22 10:48:33;;;;;;;44.25;19.87;;;;;;;;;;1932452;74;21023;-58
2023/01/22 10:51:02;;;;;;;46.77;23.32;;;;;;;;;;1932602;74;21031;-58
2023/01/22 10:53:32;;;;;;;37.75;21.82;;;;;;;;;;1932610;74;21445;-58
2023/01/22 10:56:02;;;;;;;42.45;20.68;;;;;;;;;;1932477;74;21547;-58
2023/01/22 10:58:32;;;;;;;50.67;23.27;;;;;;;;;;1932466;74;21019;-58
2023/01/22 11:01:02;;;;;;;38.95;20.27;;;;;;;;;;1932444;74;21031;-58
2023/01/22 11:03:35;;;;;;;44.85;22.70;;;;;;;;;;1932380;74;21478;-58
2023/01/22 11:06:08;;;;;;;46.53;23.92;;;;;;;;;;1924796;74;21075;-58
2023/01/22 11:08:38;;;;;;;46.23;24.30;;;;;;;;;;1921015;74;21027;-59
2023/01/22 11:11:08;;;;;;;41.85;22.82;;;;;;;;;;1923781;74;21062;-58
2023/01/22 11:13:46;;;;;;;42.38;22.93;;;;;;;;;;1924445;74;21063;-58
2023/01/22 11:16:19;;;;;;;42.93;23.57;;;;;;;;;;1923932;74;21105;-58
2023/01/22 11:18:55;;;;;;;65.87;29.30;;;;;;;;;;1924333;74;21031;-59
2023/01/22 11:21:25;;;;;;;51.13;24.82;;;;;;;;;;1924276;74;21055;-58
2023/01/22 11:24:04;;;;;;;42.88;22.60;;;;;;;;;;1924295;74;21023;-58
2023/01/22 11:26:40;;;;;;;42.00;22.80;;;;;;;;;;1924336;74;21036;-58
2023/01/22 11:29:16;;;;;;;48.48;24.45;;;;;;;;;;1924275;74;21019;-58
2023/01/22 11:32:02;;;;;;;45.45;23.67;;;;;;;;;;1923650;74;21027;-58
2023/01/22 11:34:49;;;;;;;46.60;22.40;;;;;;;;;;1924370;74;21097;-58
2023/01/22 11:37:19;;;;;;;53.65;24.85;;;;;;;;;;1924325;74;21079;-58
2023/01/22 11:39:58;;;;;;;44.95;23.25;;;;;;;;;;1924294;74;21434;-58
2023/01/22 11:42:28;;;;;;;48.87;24.07;;;;;;;;;;1924386;74;21524;-58
2023/01/22 11:45:04;;;;;;;57.03;25.90;;;;;;;;;;1920402;74;21106;-58
2023/01/22 11:47:50;;;;;;;60.10;27.05;;;;;;;;;;1924452;74;21088;-58
2023/01/22 11:50:27;;;;;;;52.50;26.73;;;;;;;;;;1924431;74;21113;-58
2023/01/22 11:53:06;;;;;;;56.28;26.17;;;;;;;;;;1924398;74;21486;-58
2023/01/22 11:55:48;;;;;;;49.08;25.45;;;;;;;;;;1921212;74;21027;-58
2023/01/22 11:58:26;;;;;;;51.50;24.92;;;;;;;;;;1923106;74;21136;-58
2023/01/22 12:00:56;;;;;;;46.58;26.50;;;;;;;;;;1923893;74;21020;-58
2023/01/22 12:03:41;;;;;;;57.62;26.27;;;;;;;;;;1924362;74;21103;-58
2023/01/22 12:06:14;;;;;;;50.65;25.43;;;;;;;;;;1904512;74;21064;-58
2023/01/22 12:08:44;;;;;;;60.73;26.73;;;;;;;;;;1896660;75;21100;-58
2023/01/22 12:11:14;;;;;;;47.48;24.07;;;;;;;;;;1897698;75;21119;-58
2023/01/22 12:13:59;;;;;;;51.15;24.90;;;;;;;;;;1897620;75;21552;-59
2023/01/22 12:16:29;;;;;;;49.27;23.02;;;;;;;;;;1897779;75;21079;-58
2023/01/22 12:19:01;;;;;;;47.10;24.87;;;;;;;;;;1897616;75;21036;-59
2023/01/22 12:21:34;;;;;;;55.60;24.07;;;;;;;;;;1897709;75;21090;-58
2023/01/22 12:24:07;;;;;;;42.58;22.20;;;;;;;;;;1896565;75;21138;-59
2023/01/22 12:26:37;;;;;;;38.35;20.92;;;;;;;;;;1896979;75;21021;-59
2023/01/22 12:29:23;;;;;;;43.48;22.82;;;;;;;;;;1897737;75;21630;-59
2023/01/22 12:32:07;;;;;;;52.83;23.40;;;;;;;;;;1897805;75;21040;-58
2023/01/22 12:34:46;;;;;;;44.77;24.32;;;;;;;;;;1897745;75;21113;-58
2023/01/22 12:37:16;;;;;;;50.12;25.55;;;;;;;;;;1897672;75;21016;-59
2023/01/22 12:39:49;;;;;;;59.83;29.07;;;;;;;;;;1897613;75;21025;-59
2023/01/22 12:42:29;;;;;;;49.03;24.27;;;;;;;;;;1897769;75;21115;-58
2023/01/22 12:45:05;;;;;;;50.90;26.85;;;;;;;;;;1897629;75;21094;-58
2023/01/22 12:47:47;;;;;;;57.70;28.42;;;;;;;;;;1897671;75;21482;-58
2023/01/22 12:50:17;;;;;;;51.23;24.25;;;;;;;;;;1897621;75;21099;-59
2023/01/22 12:52:46;;;;;;;56.80;27.15;;;;;;;;;;1896528;75;21471;-59
2023/01/22 12:55:19;;;;;;;51.48;25.05;;;;;;;;;;1897708;75;21052;-58
2023/01/22 12:57:48;;;;;;;52.75;27.22;;;;;;;;;;1895708;75;21090;-59
2023/01/22 13:00:21;;;;;;;51.92;25.48;;;;;;;;;;1897801;75;21080;-59
2023/01/22 13:02:50;;;;;;;49.93;24.18;;;;;;;;;;1897778;75;21087;-58
2023/01/22 13:05:20;;;;;;;58.40;26.97;;;;;;;;;;1897672;74;21052;-58
2023/01/22 13:07:50;;;;;;;44.53;22.65;;;;;;;;;;1897670;75;21060;-58
2023/01/22 13:10:20;;;;;;;49.53;25.35;;;;;;;;;;1897835;75;21536;-58
2023/01/22 13:12:50;;;;;;;47.15;24.35;;;;;;;;;;1897812;75;21036;-59
2023/01/22 13:15:23;;;;;;;39.67;21.48;;;;;;;;;;1897426;75;21106;-58
2023/01/22 13:17:56;;;;;;;51.37;24.52;;;;;;;;;;1897783;75;21059;-59
2023/01/22 13:20:26;;;;;;;47.30;22.52;;;;;;;;;;1897703;75;21074;-58
2023/01/22 13:22:57;;;;;;;47.13;23.65;;;;;;;;;;1897713;75;21086;-58
2023/01/22 13:25:27;;;;;;;60.08;27.25;;;;;;;;;;1897942;75;21020;-58
2023/01/22 13:27:55;;;;;;;51.02;26.50;;;;;;;;;;1896746;75;21120;-58
2023/01/22 13:30:29;;;;;;;63.33;31.62;;;;;;;;;;1897914;75;21040;-58
2023/01/22 13:33:05;;;;;;;59.63;36.17;;;;;;;;;;1898011;75;21024;-58
2023/01/22 13:35:35;;;;;;;62.08;30.62;;;;;;;;;;1897956;75;21013;-58
2023/01/22 13:38:03;;;;;;;62.38;27.82;;;;;;;;;;1896624;75;21048;-58
2023/01/22 13:40:32;;;;;;;54.67;25.88;;;;;;;;;;1897789;75;21087;-59
2023/01/22 13:43:00;;;;;;;46.42;22.42;;;;;;;;;;1897552;75;21048;-58
2023/01/22 13:45:30;;;;;;;32.05;14.30;;;;;;;;;;1897797;75;21016;-57
2023/01/22 13:48:05;;;;;;;44.63;18.60;;;;;;;;;;1897746;75;21028;-58
2023/01/22 13:50:34;;;;;;;44.48;21.25;;;;;;;;;;1897871;75;21086;-58
2023/01/22 13:53:02;;;;;;;40.28;22.48;;;;;;;;;;1897495;75;21029;-58
2023/01/22 13:55:31;;;;;;;42.35;19.67;;;;;;;;;;1897893;75;21458;-58
2023/01/22 13:58:03;;;;;;;46.37;22.37;;;;;;;;;;1897778;75;21038;-58
2023/01/22 14:00:31;;;;;;;46.42;22.95;;;;;;;;;;1897588;75;21044;-58
2023/01/22 14:02:59;;;;;;;53.20;22.95;;;;;;;;;;1897691;75;21028;-58
2023/01/22 14:05:29;;;;;;;46.00;24.90;;;;;;;;;;1897552;74;21106;-57
2023/01/22 14:08:11;;;;;;;55.90;22.77;;;;;;;;;;1932427;74;21047;-58
2023/01/22 14:10:43;;;;;;;37.45;21.17;;;;;;;;;;1932448;74;21154;-58
2023/01/22 14:13:14;;;;;;;57.78;23.30;;;;;;;;;;1932392;74;21039;-58
2023/01/22 14:15:44;;;;;;;47.78;23.20;;;;;;;;;;1932293;74;21023;-58
2023/01/22 14:18:15;;;;;;;51.85;23.50;;;;;;;;;;1930643;74;21210;-58
2023/01/22 14:20:44;;;;;;;50.05;24.40;;;;;;;;;;1932284;74;21101;-58
2023/01/22 14:23:12;;;;;;;59.13;30.02;;;;;;;;;;1932356;74;21550;-58
2023/01/22 14:25:42;;;;;;;63.02;29.85;;;;;;;;;;1932334;74;21035;-58
2023/01/22 14:28:11;;;;;;;45.15;25.82;;;;;;;;;;1931705;74;21485;-58
2023/01/22 14:30:39;;;;;;;53.23;23.50;;;;;;;;;;1932397;74;21088;-58
2023/01/22 14:33:09;;;;;;;59.83;23.90;;;;;;;;;;1932210;74;21035;-57
2023/01/22 14:35:38;;;;;;;51.53;26.17;;;;;;;;;;1927506;74;21023;-58
2023/01/22 14:38:07;;;;;;;62.90;28.30;;;;;;;;;;1932252;74;21074;-58
2023/01/22 14:40:36;;;;;;;54.23;28.23;;;;;;;;;;1932360;74;21036;-58
2023/01/22 14:43:04;;;;;;;58.13;29.00;;;;;;;;;;1932244;74;21112;-58